createdAt,value
2022-09-04T00:00:00.708Z,101269.84
2022-09-04T00:05:20.091Z,101264.71
2022-09-04T00:10:34.655Z,101268.55
2022-09-04T00:15:43.938Z,101272.71
2022-09-04T00:20:54.907Z,101277.73
2022-09-04T00:26:08.761Z,101278.97
2022-09-04T00:31:29.155Z,101280.04
2022-09-04T00:36:40.078Z,101274.16
2022-09-04T00:42:01.084Z,101277.96
2022-09-04T00:47:34.157Z,101279.30
2022-09-04T00:52:58.584Z,101285.56
2022-09-04T00:58:24.541Z,101285.05
2022-09-04T01:04:00.115Z,101292.36
2022-09-04T01:09:34.013Z,101297.59
2022-09-04T01:14:49.141Z,101296.73
2022-09-04T01:20:08.643Z,101303.14
2022-09-04T01:25:30.195Z,101313.04
2022-09-04T01:30:49.230Z,101307.51
2022-09-04T01:36:05.652Z,101313.58
2022-09-04T01:41:18.406Z,101313.05
2022-09-04T01:46:44.797Z,101321.02
2022-09-04T01:52:02.738Z,101320.34
2022-09-04T01:57:23.005Z,101323.64
2022-09-04T02:02:37.491Z,101314.29
2022-09-04T02:07:49.234Z,101317.23
2022-09-04T02:13:08.206Z,101313.42
2022-09-04T02:18:31.423Z,101312.04
2022-09-04T02:23:45.596Z,101310.84
2022-09-04T02:28:58.991Z,101308.77
2022-09-04T02:34:13.040Z,101312.21
2022-09-04T02:39:31.944Z,101306.15
2022-09-04T02:44:47.489Z,101305.46
2022-09-04T02:50:03.956Z,101317.58
2022-09-04T02:55:30.496Z,101314.27
2022-09-04T03:00:44.631Z,101310.13
2022-09-04T03:05:56.786Z,101310.29
2022-09-04T03:11:09.958Z,101311.84
2022-09-04T03:16:24.668Z,101314.63
2022-09-04T03:21:35.732Z,101310.62
2022-09-04T03:26:45.316Z,101316.66
2022-09-04T03:32:00.329Z,101312.68
2022-09-04T03:37:19.539Z,101314.90
2022-09-04T03:42:34.694Z,101321.48
2022-09-04T03:47:49.810Z,101325.61
2022-09-04T03:53:03.626Z,101332.37
2022-09-04T03:58:19.631Z,101333.40
2022-09-04T04:04:00.166Z,101338.41
2022-09-04T04:09:29.917Z,101344.27
2022-09-04T04:14:52.147Z,101347.43
2022-09-04T04:20:10.890Z,101348.48
2022-09-04T04:25:29.102Z,101348.17
2022-09-04T04:30:45.822Z,101348.38
2022-09-04T04:36:00.514Z,101358.95
2022-09-04T04:41:30.867Z,101359.96
2022-09-04T04:46:54.903Z,101361.84
2022-09-04T04:52:26.740Z,101364.18
2022-09-04T04:57:41.102Z,101370.77
2022-09-04T05:03:00.708Z,101376.27
2022-09-04T05:08:15.106Z,101380.52
2022-09-04T05:13:30.493Z,101381.23
2022-09-04T05:18:44.931Z,101379.59
2022-09-04T05:23:58.085Z,101383.70
2022-09-04T05:29:10.918Z,101383.77
2022-09-04T05:34:27.743Z,101381.59
2022-09-04T05:39:42.439Z,101382.88
2022-09-04T05:44:58.549Z,101383.10
2022-09-04T05:50:26.840Z,101386.89
2022-09-04T05:55:54.095Z,101387.22
2022-09-04T06:01:13.690Z,101386.13
2022-09-04T06:06:26.273Z,101389.48
2022-09-04T06:11:49.809Z,101391.65
2022-09-04T06:17:15.831Z,101393.99
2022-09-04T06:23:03.030Z,101402.83
2022-09-04T06:28:31.641Z,101402.66
2022-09-04T06:34:00.827Z,101408.66
2022-09-04T06:39:31.307Z,101413.65
2022-09-04T06:44:49.650Z,101416.27
2022-09-04T06:50:21.116Z,101416.36
2022-09-04T06:55:35.973Z,101417.06
2022-09-04T07:00:53.330Z,101423.92
2022-09-04T07:06:09.054Z,101425.60
2022-09-04T07:11:32.705Z,101430.39
2022-09-04T07:16:45.801Z,101429.18
2022-09-04T07:22:05.284Z,101433.10
2022-09-04T07:27:17.535Z,101432.39
2022-09-04T07:32:29.077Z,101434.65
2022-09-04T07:37:41.733Z,101437.11
2022-09-04T07:42:53.394Z,101441.66
2022-09-04T07:48:12.680Z,101438.69
2022-09-04T07:53:32.293Z,101436.63
2022-09-04T07:58:56.704Z,101437.67
2022-09-04T08:04:25.238Z,101434.07
2022-09-04T08:09:52.707Z,101438.11
2022-09-04T08:15:14.311Z,101440.30
2022-09-04T08:20:42.153Z,101438.04
2022-09-04T08:26:00.122Z,101435.77
2022-09-04T08:31:14.579Z,101437.23
2022-09-04T08:36:32.432Z,101445.23
2022-09-04T08:42:08.101Z,101448.34
2022-09-04T08:47:45.234Z,101447.08
2022-09-04T08:53:26.237Z,101446.16
2022-09-04T08:59:11.194Z,101445.61
2022-09-04T09:05:09.999Z,101440.08
2022-09-04T09:10:36.274Z,101438.88
2022-09-04T09:16:19.390Z,101443.43
2022-09-04T09:21:40.299Z,101437.86
2022-09-04T09:27:00.055Z,101440.02
2022-09-04T09:32:36.519Z,101439.84
2022-09-04T09:38:07.127Z,101441.83
2022-09-04T09:43:36.018Z,101439.36
2022-09-04T09:49:19.769Z,101441.59
2022-09-04T09:54:50.486Z,101435.38
2022-09-04T10:00:21.285Z,101435.46
2022-09-04T10:05:59.296Z,101430.21
2022-09-04T10:11:26.359Z,101428.35
2022-09-04T10:17:01.766Z,101425.83
2022-09-04T10:22:33.143Z,101426.52
2022-09-04T10:28:39.648Z,101422.11
2022-09-04T10:34:06.058Z,101423.66
2022-09-04T10:39:41.399Z,101424.48
2022-09-04T10:45:20.545Z,101430.63
2022-09-04T10:50:35.388Z,101438.40
2022-09-04T10:56:02.866Z,101437.70
2022-09-04T11:01:55.051Z,101436.48
2022-09-04T11:07:28.988Z,101436.02
2022-09-04T11:12:52.344Z,101438.70
2022-09-04T11:18:38.014Z,101430.10
2022-09-04T11:24:33.453Z,101430.71
2022-09-04T11:29:55.928Z,101432.02
2022-09-04T11:35:52.510Z,101430.47
2022-09-04T11:41:29.039Z,101428.00
2022-09-04T11:47:08.756Z,101426.06
2022-09-04T11:52:36.062Z,101429.45
2022-09-04T11:58:03.561Z,101426.96
2022-09-04T12:03:39.617Z,101423.77
2022-09-04T12:09:18.527Z,101422.58
2022-09-04T12:14:43.119Z,101420.51
2022-09-04T12:20:24.949Z,101418.71
2022-09-04T12:25:44.764Z,101410.20
2022-09-04T12:31:07.866Z,101412.79
2022-09-04T12:36:48.828Z,101415.30
2022-09-04T12:42:03.569Z,101415.90
2022-09-04T12:47:22.548Z,101410.02
2022-09-04T12:52:51.202Z,101406.69
2022-09-04T12:58:10.273Z,101400.35
2022-09-04T13:03:26.271Z,101404.27
2022-09-04T13:08:46.784Z,101408.98
2022-09-04T13:14:06.358Z,101408.60
2022-09-04T13:19:20.447Z,101406.78
2022-09-04T13:24:44.434Z,101404.09
2022-09-04T13:30:03.799Z,101408.04
2022-09-04T13:35:22.252Z,101411.39
2022-09-04T13:40:44.669Z,101413.96
2022-09-04T13:45:54.311Z,101415.55
2022-09-04T13:51:13.390Z,101419.13
2022-09-04T13:56:26.412Z,101429.55
2022-09-04T14:01:36.987Z,101429.55
2022-09-04T14:06:44.873Z,101431.56
2022-09-04T14:12:12.067Z,101431.00
2022-09-04T14:17:27.088Z,101426.61
2022-09-04T14:22:45.394Z,101427.45
2022-09-04T14:28:03.433Z,101424.89
2022-09-04T14:33:24.043Z,101423.15
2022-09-04T14:39:05.241Z,101419.73
2022-09-04T14:44:31.119Z,101422.48
2022-09-04T14:49:47.466Z,101424.54
2022-09-04T14:54:57.782Z,101424.83
2022-09-04T15:00:14.745Z,101424.36
2022-09-04T15:05:27.348Z,101426.95
2022-09-04T15:10:49.977Z,101428.36
2022-09-04T15:15:59.958Z,101428.63
2022-09-04T15:21:11.294Z,101426.98
2022-09-04T15:26:25.202Z,101423.23
2022-09-04T15:31:35.371Z,101421.75
2022-09-04T15:36:41.786Z,101412.21
2022-09-04T15:41:50.060Z,101417.05
2022-09-04T15:47:06.305Z,101415.35
2022-09-04T15:52:30.565Z,101413.44
2022-09-04T15:57:51.100Z,101416.77
2022-09-04T16:03:07.016Z,101423.37
2022-09-04T16:08:23.450Z,101430.99
2022-09-04T16:13:58.223Z,101433.26
2022-09-04T16:19:15.187Z,101438.46
2022-09-04T16:24:29.730Z,101443.88
2022-09-04T16:29:38.213Z,101441.75
2022-09-04T16:34:51.970Z,101449.20
2022-09-04T16:40:12.428Z,101456.40
2022-09-04T16:45:24.810Z,101465.10
2022-09-04T16:50:39.911Z,101471.08
2022-09-04T16:55:56.133Z,101475.95
2022-09-04T17:01:14.119Z,101476.36
2022-09-04T17:06:27.602Z,101481.42
2022-09-04T17:11:42.945Z,101492.26
2022-09-04T17:16:58.745Z,101502.05
2022-09-04T17:26:28.090Z,101508.34
2022-09-04T17:29:07.540Z,101514.08
2022-09-04T17:38:02.999Z,101518.49
2022-09-04T17:40:46.391Z,101527.34
2022-09-04T17:45:10.722Z,101534.09
2022-09-04T17:50:19.451Z,101539.39
2022-09-04T17:55:26.909Z,101549.08
2022-09-04T18:00:49.886Z,101553.81
2022-09-04T18:06:03.049Z,101558.56
2022-09-04T18:11:18.365Z,101565.48
2022-09-04T18:22:25.039Z,101578.73
2022-09-04T18:27:33.048Z,101579.19
2022-09-04T18:37:06.586Z,101579.29
2022-09-04T18:38:16.862Z,101583.21
2022-09-04T18:50:20.770Z,101586.73
2022-09-04T18:50:53.511Z,101594.88
2022-09-04T18:54:37.770Z,101598.44
2022-09-04T18:59:53.646Z,101600.98
2022-09-04T19:05:18.051Z,101604.28
2022-09-04T19:10:27.126Z,101606.88
2022-09-04T19:15:59.795Z,101616.85
2022-09-04T19:21:30.402Z,101616.43
2022-09-04T19:26:42.375Z,101622.03
2022-09-04T19:31:54.762Z,101632.75
2022-09-04T19:38:06.409Z,101634.99
2022-09-04T19:46:03.964Z,101643.39
2022-09-04T19:48:18.920Z,101649.54
2022-09-04T19:53:46.937Z,101654.30
2022-09-04T19:59:03.653Z,101659.63
2022-09-04T20:04:20.466Z,101662.33
2022-09-04T20:09:33.552Z,101661.88
2022-09-04T20:14:45.897Z,101667.90
2022-09-04T20:19:56.342Z,101671.61
2022-09-04T20:25:24.440Z,101678.11
2022-09-04T20:30:32.073Z,101681.58
2022-09-04T20:35:44.694Z,101684.73
2022-09-04T20:40:56.478Z,101693.63
2022-09-04T20:50:20.088Z,101693.73
2022-09-04T20:52:54.406Z,101695.45
2022-09-04T21:03:12.414Z,101706.74
2022-09-04T21:03:35.685Z,101711.76
2022-09-04T21:08:40.138Z,101719.80
2022-09-04T21:13:50.920Z,101724.14
2022-09-04T21:19:29.258Z,101730.09
2022-09-04T21:25:00.539Z,101733.12
2022-09-04T21:30:12.777Z,101739.06
2022-09-04T21:35:24.349Z,101749.20
2022-09-04T21:40:55.482Z,101746.20
2022-09-04T21:46:20.868Z,101749.73
2022-09-04T21:51:56.582Z,101759.08
2022-09-04T22:01:25.388Z,101761.92
2022-09-04T22:03:35.220Z,101763.16
2022-09-04T22:13:33.170Z,101770.84
2022-09-04T22:14:30.666Z,101771.00
2022-09-04T22:20:15.366Z,101774.80
2022-09-04T22:25:39.955Z,101772.77
2022-09-04T22:31:09.008Z,101773.80
2022-09-04T22:36:50.395Z,101777.00
2022-09-04T22:42:47.503Z,101782.77
2022-09-04T22:48:15.769Z,101784.69
2022-09-04T22:53:40.577Z,101778.35
2022-09-04T22:59:25.994Z,101778.85
2022-09-04T23:04:51.703Z,101785.13
2022-09-04T23:13:46.537Z,101787.77
2022-09-04T23:16:05.941Z,101789.17
2022-09-04T23:26:37.587Z,101790.59
2022-09-04T23:27:28.321Z,101791.39
2022-09-04T23:33:03.836Z,101793.08
2022-09-04T23:38:44.706Z,101788.05
2022-09-04T23:44:47.517Z,101787.18
2022-09-04T23:50:17.946Z,101788.52
2022-09-04T23:55:56.726Z,101790.41
